createdAt,value
2022-12-23T00:04:19.107Z,98730.06
2022-12-23T00:09:21.158Z,98730.06
2022-12-23T00:14:47.553Z,98728.00
2022-12-23T00:19:49.959Z,98728.09
2022-12-23T00:24:51.559Z,98743.44
2022-12-23T00:29:53.449Z,98753.63
2022-12-23T00:34:55.050Z,98749.56
2022-12-23T00:40:15.628Z,98756.66
2022-12-23T00:45:17.250Z,98752.38
2022-12-23T00:50:18.897Z,98754.09
2022-12-23T00:55:20.805Z,98757.31
2022-12-23T01:00:43.021Z,98750.63
2022-12-23T01:05:47.679Z,98765.75
2022-12-23T01:10:49.243Z,98770.00
2022-12-23T01:15:50.837Z,98776.19
2022-12-23T01:20:52.455Z,98785.78
2022-12-23T01:26:02.858Z,98798.38
2022-12-23T01:31:06.112Z,98811.94
2022-12-23T01:36:10.132Z,98824.31
2022-12-23T01:41:43.593Z,98829.34
2022-12-23T01:46:45.324Z,98827.47
2022-12-23T01:51:46.930Z,98835.69
2022-12-23T01:56:48.934Z,98848.78
2022-12-23T02:02:09.264Z,98865.16
2022-12-23T02:07:30.564Z,98866.84
2022-12-23T02:13:01.057Z,98869.59
2022-12-23T02:18:40.186Z,98868.00
2022-12-23T02:23:50.655Z,98880.94
2022-12-23T02:29:07.077Z,98878.56
2022-12-23T02:34:21.034Z,98882.31
2022-12-23T02:39:38.219Z,98885.44
2022-12-23T02:44:53.547Z,98873.00
2022-12-23T02:49:59.010Z,98875.28
2022-12-23T02:55:06.310Z,98871.91
2022-12-23T03:00:10.530Z,98879.75
2022-12-23T03:05:24.136Z,98887.16
2022-12-23T03:10:48.312Z,98883.72
2022-12-23T03:16:18.099Z,98875.41
2022-12-23T03:21:29.578Z,98878.81
2022-12-23T03:26:40.077Z,98885.47
2022-12-23T03:31:43.803Z,98889.34
2022-12-23T03:36:58.822Z,98912.22
2022-12-23T03:42:19.573Z,98913.38
2022-12-23T03:47:24.284Z,98900.03
2022-12-23T03:52:35.526Z,98909.81
2022-12-23T03:57:44.693Z,98915.13
2022-12-23T04:03:10.679Z,98932.69
2022-12-23T04:08:27.361Z,98932.22
2022-12-23T04:13:30.240Z,98927.13
2022-12-23T04:18:32.099Z,98922.03
2022-12-23T04:23:33.719Z,98933.47
2022-12-23T04:28:35.301Z,98926.09
2022-12-23T04:33:36.890Z,98931.72
2022-12-23T04:38:38.474Z,98941.53
2022-12-23T04:43:40.083Z,98944.97
2022-12-23T04:48:41.697Z,98942.25
2022-12-23T04:53:43.332Z,98942.16
2022-12-23T04:58:44.988Z,98936.50
2022-12-23T05:03:46.597Z,98925.25
2022-12-23T05:08:48.272Z,98942.16
2022-12-23T05:13:49.927Z,98946.41
2022-12-23T05:18:51.557Z,98956.41
2022-12-23T05:23:53.238Z,98964.53
2022-12-23T05:28:55.721Z,98943.41
2022-12-23T05:34:02.316Z,98949.69
2022-12-23T05:39:07.436Z,98958.31
2022-12-23T05:44:09.025Z,98959.88
2022-12-23T05:49:10.614Z,98975.09
2022-12-23T05:54:12.276Z,98974.72
2022-12-23T05:59:13.880Z,98969.59
2022-12-23T06:04:15.531Z,98976.78
2022-12-23T06:09:17.172Z,98978.56
2022-12-23T06:14:22.595Z,98991.91
2022-12-23T06:19:26.859Z,99001.69
2022-12-23T06:24:28.465Z,99014.34
2022-12-23T06:29:30.061Z,99026.25
2022-12-23T06:34:31.737Z,99024.13
2022-12-23T06:39:33.697Z,99021.00
2022-12-23T06:44:35.270Z,99023.19
2022-12-23T06:49:36.883Z,99022.88
2022-12-23T06:54:38.565Z,99017.66
2022-12-23T06:59:40.424Z,99009.94
2022-12-23T07:04:42.019Z,98998.34
2022-12-23T07:09:43.762Z,99005.88
2022-12-23T07:14:45.390Z,99014.31
2022-12-23T07:19:46.992Z,99012.06
2022-12-23T07:24:48.753Z,99012.47
2022-12-23T07:29:50.444Z,99024.56
2022-12-23T07:34:52.104Z,99038.84
2022-12-23T07:39:53.675Z,99055.19
2022-12-23T07:44:55.285Z,99061.09
2022-12-23T07:49:56.882Z,99056.28
2022-12-23T07:54:58.489Z,99061.84
2022-12-23T08:00:00.094Z,99054.50
2022-12-23T08:05:02.032Z,99043.66
2022-12-23T08:10:04.945Z,99028.69
2022-12-23T08:15:07.757Z,99041.53
2022-12-23T08:20:09.774Z,99041.00
2022-12-23T08:25:11.444Z,99036.22
2022-12-23T08:30:13.433Z,99051.47
2022-12-23T08:35:15.155Z,99044.69
2022-12-23T08:40:16.821Z,99044.81
2022-12-23T08:45:18.736Z,99051.25
2022-12-23T08:50:20.438Z,99040.94
2022-12-23T08:55:22.096Z,99033.97
2022-12-23T09:00:23.831Z,99029.34
2022-12-23T09:05:26.126Z,99044.41
2022-12-23T09:10:27.877Z,99040.41
2022-12-23T09:15:29.599Z,99031.22
2022-12-23T09:20:31.487Z,99038.72
2022-12-23T09:25:33.839Z,99042.28
2022-12-23T09:30:35.478Z,99013.03
2022-12-23T09:35:37.134Z,99032.63
2022-12-23T09:40:41.055Z,99028.97
2022-12-23T09:46:16.648Z,99033.22
2022-12-23T09:51:23.427Z,99036.97
2022-12-23T09:56:34.517Z,99020.34
2022-12-23T10:02:11.501Z,99011.41
2022-12-23T10:07:37.518Z,99005.00
2022-12-23T10:12:43.195Z,99003.84
2022-12-23T10:17:46.458Z,99004.41
2022-12-23T10:22:48.137Z,98998.94
2022-12-23T10:27:50.078Z,99007.28
2022-12-23T10:33:23.474Z,98982.00
2022-12-23T10:38:29.108Z,98973.09
2022-12-23T10:44:28.817Z,98950.28
2022-12-23T10:49:44.173Z,98943.91
2022-12-23T10:54:47.675Z,98930.75
2022-12-23T10:59:49.324Z,98931.47
2022-12-23T11:04:52.107Z,98928.16
2022-12-23T11:10:02.548Z,98903.84
2022-12-23T11:15:04.473Z,98888.50
2022-12-23T11:20:12.295Z,98900.59
2022-12-23T11:25:29.286Z,98888.06
2022-12-23T11:30:35.305Z,98874.81
2022-12-23T11:35:37.557Z,98857.94
2022-12-23T11:40:39.848Z,98843.94
2022-12-23T11:45:41.492Z,98831.81
2022-12-23T11:50:43.148Z,98819.47
2022-12-23T11:56:09.266Z,98825.06
2022-12-23T12:01:17.848Z,98817.81
2022-12-23T12:06:20.452Z,98818.75
2022-12-23T12:11:27.235Z,98812.56
2022-12-23T12:17:16.543Z,98811.66
2022-12-23T12:22:33.396Z,98807.75
2022-12-23T12:27:39.384Z,98790.94
2022-12-23T12:33:11.875Z,98758.63
2022-12-23T12:38:29.835Z,98743.78
2022-12-23T12:43:35.273Z,98734.88
2022-12-23T12:48:54.798Z,98725.50
2022-12-23T12:54:05.546Z,98724.56
2022-12-23T12:59:25.050Z,98714.50
2022-12-23T13:05:06.527Z,98697.38
2022-12-23T13:10:20.420Z,98698.53
2022-12-23T13:15:33.898Z,98674.00
2022-12-23T13:20:59.558Z,98673.50
2022-12-23T13:26:32.695Z,98669.84
2022-12-23T13:32:01.736Z,98683.72
2022-12-23T13:37:17.091Z,98650.53
2022-12-23T13:42:28.618Z,98648.16
2022-12-23T13:47:39.124Z,98632.38
2022-12-23T13:53:10.320Z,98615.72
2022-12-23T13:58:22.027Z,98601.63
2022-12-23T14:03:31.889Z,98587.44
2022-12-23T14:08:42.915Z,98580.53
2022-12-23T14:13:46.410Z,98580.25
2022-12-23T14:19:00.348Z,98572.25
2022-12-23T14:24:08.079Z,98562.88
2022-12-23T14:29:42.367Z,98572.94
2022-12-23T14:35:16.857Z,98569.63
2022-12-23T14:40:37.189Z,98598.56
2022-12-23T14:45:43.555Z,98576.16
2022-12-23T14:50:57.586Z,98576.16
2022-12-23T14:56:27.065Z,98577.81
2022-12-23T15:01:54.073Z,98549.59
2022-12-23T15:07:16.939Z,98548.88
2022-12-23T15:12:35.984Z,98539.31
2022-12-23T15:17:37.708Z,98530.28
2022-12-23T15:22:41.615Z,98530.72
2022-12-23T15:27:43.504Z,98531.22
2022-12-23T15:32:47.663Z,98521.00
2022-12-23T15:37:51.523Z,98509.00
2022-12-23T15:42:53.943Z,98507.72
2022-12-23T15:47:55.755Z,98516.75
2022-12-23T15:53:05.445Z,98521.34
2022-12-23T15:58:07.363Z,98523.63
2022-12-23T16:03:26.987Z,98526.94
2022-12-23T16:08:30.556Z,98533.22
2022-12-23T16:13:32.817Z,98516.75
2022-12-23T16:18:46.930Z,98522.50
2022-12-23T16:23:53.326Z,98527.97
2022-12-23T16:29:01.501Z,98537.34
2022-12-23T16:34:06.693Z,98543.50
2022-12-23T16:39:18.999Z,98534.13
2022-12-23T16:44:20.620Z,98544.97
2022-12-23T16:49:29.531Z,98543.09
2022-12-23T16:54:35.089Z,98542.16
2022-12-23T16:59:37.431Z,98552.00
2022-12-23T17:04:39.023Z,98554.03
2022-12-23T17:09:40.651Z,98559.06
2022-12-23T17:14:42.259Z,98564.78
2022-12-23T17:19:43.928Z,98581.88
2022-12-23T17:24:45.542Z,98590.38
2022-12-23T17:29:47.286Z,98599.91
2022-12-23T17:34:49.993Z,98607.34
2022-12-23T17:39:51.724Z,98616.03
2022-12-23T17:44:54.110Z,98617.28
2022-12-23T17:49:55.736Z,98628.88
2022-12-23T17:54:57.366Z,98636.72
2022-12-23T17:59:58.995Z,98636.66
2022-12-23T18:05:02.216Z,98647.38
2022-12-23T18:10:04.216Z,98656.16
2022-12-23T18:15:07.387Z,98665.69
2022-12-23T18:20:18.348Z,98672.00
2022-12-23T18:25:19.887Z,98659.03
2022-12-23T18:30:22.001Z,98684.06
2022-12-23T18:35:32.353Z,98707.34
2022-12-23T18:40:34.353Z,98718.03
2022-12-23T18:45:42.007Z,98715.44
2022-12-23T18:50:46.635Z,98724.09
2022-12-23T18:55:48.605Z,98726.00
2022-12-23T19:00:52.721Z,98735.50
2022-12-23T19:05:56.060Z,98742.06
2022-12-23T19:10:57.713Z,98749.63
2022-12-23T19:15:59.424Z,98760.19
2022-12-23T19:21:04.487Z,98761.63
2022-12-23T19:26:06.357Z,98764.94
2022-12-23T19:31:09.756Z,98756.25
2022-12-23T19:36:17.061Z,98744.94
2022-12-23T19:41:19.152Z,98755.09
2022-12-23T19:46:21.080Z,98741.22
2022-12-23T19:51:22.700Z,98757.38
2022-12-23T19:56:25.170Z,98753.31
2022-12-23T20:01:27.966Z,98768.16
2022-12-23T20:06:38.381Z,98788.84
2022-12-23T20:11:43.450Z,98787.31
2022-12-23T20:16:46.007Z,98811.94
2022-12-23T20:21:47.728Z,98815.47
2022-12-23T20:26:49.362Z,98815.47
2022-12-23T20:31:51.096Z,98824.03
2022-12-23T20:36:52.797Z,98827.00
2022-12-23T20:41:54.424Z,98860.03
2022-12-23T20:46:56.085Z,98856.47
2022-12-23T20:51:57.958Z,98847.69
2022-12-23T20:56:59.625Z,98852.31
2022-12-23T21:02:01.327Z,98863.22
2022-12-23T21:07:02.984Z,98874.00
2022-12-23T21:12:04.849Z,98890.75
2022-12-23T21:17:06.601Z,98904.50
2022-12-23T21:22:08.724Z,98903.19
2022-12-23T21:27:10.471Z,98912.69
2022-12-23T21:32:12.046Z,98914.56
2022-12-23T21:37:13.743Z,98922.53
2022-12-23T21:42:15.424Z,98909.91
2022-12-23T21:47:17.259Z,98917.81
2022-12-23T21:52:19.020Z,98938.19
2022-12-23T21:57:20.780Z,98945.97
2022-12-23T22:02:22.445Z,98946.94
2022-12-23T22:07:24.166Z,98955.94
2022-12-23T22:12:27.022Z,98958.91
2022-12-23T22:17:28.682Z,98960.28
2022-12-23T22:22:30.294Z,98970.94
2022-12-23T22:27:32.048Z,98974.59
2022-12-23T22:32:37.750Z,98978.84
2022-12-23T22:37:42.291Z,98998.25
2022-12-23T22:42:43.915Z,98995.06
2022-12-23T22:47:45.585Z,98998.31
2022-12-23T22:52:47.349Z,99025.13
2022-12-23T22:57:48.964Z,99037.44
2022-12-23T23:02:50.560Z,99035.63
2022-12-23T23:07:52.239Z,99058.81
2022-12-23T23:12:53.857Z,99047.75
2022-12-23T23:17:56.225Z,99070.56
2022-12-23T23:22:57.859Z,99065.97
2022-12-23T23:27:59.450Z,99083.34
2022-12-23T23:33:01.077Z,99096.13
2022-12-23T23:38:03.796Z,99095.81
2022-12-23T23:43:05.443Z,99102.22
2022-12-23T23:48:08.172Z,99111.25
2022-12-23T23:53:11.934Z,99103.66
2022-12-23T23:58:13.567Z,99104.59
